Raritan, Illinois
Current Conditions -  °F | °C
As of 7:15 AM on Monday 22 Dec 2014 (Local Time) from KMQB Reporting Station
Overcast Overcast  
Wind Chill: 28°   Ceiling: 3900
Heat Index: 37°   Visibility: 7mi
Dew Point: 33°   Wind: 13mph
Humidity: 86%   Direction: 120°ESE
Pressure: 29.8"   Gusts: NA
Location:  40.7°N, 90.83°W
Report Text: KMQB 221315Z AUTO 12011KT 7SM OVC039 03/00 A2980 RMK AO2 T00250004
Loading
Personal Weather Stations






























Interactive Weather Map New forecast layout! Learn more

10-Day Weather Forecast

Advertisements
Track Severe Weather on mobile